Orbital elements of FENGYUN 1C DEB
| Launched | 9 May 1999 |
| Flight ended | – |
| Launch site | Taiyuan Space Center, PRC |
| Owner | People's Republic of China |
| NORAD ID | 31959 |
| Date fetched |
Epoch osculation |
Inc. [°] |
Ecc. | RA asc node [hr] |
Arg Peri. [°] |
Mean anom [°] |
Mean motion [rev/day] |
Abs. mag |
| Date fetched |
Epoch osculation |
Inc. [°] |
Ecc. | RA asc node [hr] |
Arg Peri. [°] |
Mean anom [°] |
Mean motion [rev/day] |
Abs. mag |
| 2026 May 08 17:57 | 2026 May 03 21:56:27 | 98.5052 | 0.00297 | 0.0601 | 83.7384 | 276.7196 | 14.49418 | – |
| 2026 May 07 17:58 | 2026 May 03 21:56:27 | 98.5052 | 0.00297 | 0.0601 | 83.7384 | 276.7196 | 14.49418 | – |
| 2026 May 06 17:57 | 2026 May 03 21:56:27 | 98.5052 | 0.00297 | 0.0601 | 83.7384 | 276.7196 | 14.49418 | – |
| 2026 May 05 17:57 | 2026 May 03 21:56:27 | 98.5052 | 0.00297 | 0.0601 | 83.7384 | 276.7196 | 14.49418 | – |
| 2026 May 04 17:57 | 2026 Apr 30 09:26:32 | 98.5059 | 0.00292 | 23.8235 | 93.6471 | 276.7196 | 14.49418 | – |
| 2026 May 03 17:57 | 2026 Apr 30 09:26:32 | 98.5059 | 0.00292 | 23.8235 | 93.6471 | 276.7196 | 14.49418 | – |
| 2026 May 02 17:57 | 2026 Apr 30 09:26:32 | 98.5059 | 0.00292 | 23.8235 | 93.6471 | 276.7196 | 14.49418 | – |
| 2026 May 01 17:56 | 2026 Apr 30 09:26:32 | 98.5059 | 0.00292 | 23.8235 | 93.6471 | 276.7196 | 14.49418 | – |
| 2026 Apr 30 17:56 | 2026 Apr 30 09:26:32 | 98.5059 | 0.00292 | 23.8235 | 93.6471 | 276.7196 | 14.49418 | – |
| 2026 Apr 29 17:57 | 2026 Apr 21 21:38:18 | 98.5066 | 0.00281 | 23.2528 | 118.3293 | 276.7196 | 14.49418 | – |
| 2026 Apr 28 17:56 | 2026 Apr 21 21:38:18 | 98.5066 | 0.00281 | 23.2528 | 118.3293 | 276.7196 | 14.49418 | – |
| 2026 Apr 27 17:58 | 2026 Apr 21 21:38:18 | 98.5066 | 0.00281 | 23.2528 | 118.3293 | 276.7196 | 14.49418 | – |
| 2026 Apr 26 17:58 | 2026 Apr 21 21:38:18 | 98.5066 | 0.00281 | 23.2528 | 118.3293 | 276.7196 | 14.49418 | – |
| 2026 Apr 25 17:58 | 2026 Apr 21 21:38:18 | 98.5066 | 0.00281 | 23.2528 | 118.3293 | 276.7196 | 14.49418 | – |
| 2026 Apr 24 17:59 | 2026 Apr 21 21:38:18 | 98.5066 | 0.00281 | 23.2528 | 118.3293 | 276.7196 | 14.49418 | – |
| 2026 Apr 23 17:57 | 2026 Apr 18 22:23:10 | 98.5067 | 0.00276 | 23.0533 | 127.3490 | 276.7196 | 14.49418 | – |
| 2026 Apr 22 17:57 | 2026 Apr 18 22:23:10 | 98.5067 | 0.00276 | 23.0533 | 127.3490 | 276.7196 | 14.49418 | – |
| 2026 Apr 21 17:57 | 2026 Apr 18 22:23:10 | 98.5067 | 0.00276 | 23.0533 | 127.3490 | 276.7196 | 14.49418 | – |
| 2026 Apr 20 17:57 | 2026 Apr 18 22:23:10 | 98.5067 | 0.00276 | 23.0533 | 127.3490 | 276.7196 | 14.49418 | – |
| 2026 Apr 19 17:58 | 2026 Apr 18 22:23:10 | 98.5067 | 0.00276 | 23.0533 | 127.3490 | 276.7196 | 14.49418 | – |
| 2026 Apr 18 17:56 | 2026 Apr 10 08:54:23 | 98.5083 | 0.00266 | 22.4778 | 153.8584 | 276.7196 | 14.49418 | – |
| 2026 Apr 16 17:57 | 2026 Apr 10 08:54:23 | 98.5083 | 0.00266 | 22.4778 | 153.8584 | 276.7196 | 14.49418 | – |
| 2026 Apr 14 17:57 | 2026 Apr 10 08:54:23 | 98.5083 | 0.00266 | 22.4778 | 153.8584 | 276.7196 | 14.49418 | – |
| 2026 Apr 13 17:57 | 2026 Apr 10 08:54:23 | 98.5083 | 0.00266 | 22.4778 | 153.8584 | 276.7196 | 14.49418 | – |
| 2026 Apr 12 17:57 | 2026 Apr 04 21:59:21 | 98.5078 | 0.00261 | 22.1113 | 171.1987 | 276.7196 | 14.49418 | – |
| 2026 Apr 11 17:57 | 2026 Apr 04 21:59:21 | 98.5078 | 0.00261 | 22.1113 | 171.1987 | 276.7196 | 14.49418 | – |